Meteo Giornale » Osservazioni meteo Gran Bretagna » Benson

ore: 12:50 - Osservazioni Meteo Benson
Lat. 51° 37' N Lon. 1° 5' W Alt. 63 metri s.l.m.

sereno Europe/London

19 °C

Sereno

Temp. 24 Ore

9 °C

22 °C

Ovest

13 Km/h

Dew point 7 °C

Umidità 45 %

Visibilità  31 Km

Il sole sorge alle ore 05:30

Il sole tramonta alle ore 20:50

Data e Ora Cielo e Fenomeni T °C DP °C Um. % Pres. hPa Vis. km Vento km/h
Oggi h: 12:50 sereno Sereno 19 7 45 1016 31 O 13
Oggi h: 11:50 sereno Sereno 19 8 48 1016 31 O/NO 14.8
Oggi h: 10:50 sereno Sereno 18 9 55 1016 31 O/NO 11.1
Oggi h: 09:50 nuvoloso Nuvoloso 17 10 63 1016 31 N/NO 11.1
Oggi h: 08:50 sereno Sereno 16 10 67 1016 10 NO 7.4
Oggi h: 07:50 sereno Sereno 13 10 81 1016 10 N 3.7
Oggi h: 06:50 sereno Sereno 10 9 93 1016 10 N 1.8
Oggi h: 05:50 poco_nuvoloso Poco Nuvoloso 9 8 93 1016 10 N 1.8
Oggi h: 04:50 molto_nuvoloso Molto Nuvoloso 10 8 87 1015 10 N 3.7
Oggi h: 03:50 nuvoloso Nuvoloso 11 9 87 1015 10 N 1.8
Oggi h: 02:50 molto_nuvoloso Molto Nuvoloso 12 10 87 1015 10 N 3.7
Oggi h: 01:50 poco_nuvoloso Poco Nuvoloso 12 9 81 1015 10 N 3.7
Oggi h: 00:50 nuvoloso Nuvoloso 14 9 71 1015 10 N 1.8
Ieri h: 23:50 coperto Coperto 16 10 67 1015 10 O 11.1
Ieri h: 22:50 molto_nuvoloso Molto Nuvoloso 16 9 63 1015 10 O 9.3
Ieri h: 21:50 molto_nuvoloso Molto Nuvoloso 18 9 55 1015 10 O/SO 13
Ieri h: 20:50 molto_nuvoloso Molto Nuvoloso 19 9 52 1015 10 O/SO 14.8
Ieri h: 19:50 molto_nuvoloso Molto Nuvoloso 20 9 49 1015 10 O/SO 13
Ieri h: 18:50 nuvoloso Nuvoloso 21 9 46 1015 10 O/SO 18.5
Ieri h: 17:50 poco_nuvoloso Poco Nuvoloso 22 8 40 1015 10 O 18.5
Ieri h: 16:50 poco_nuvoloso Poco Nuvoloso 22 9 43 1015 10 O 20.3
Ieri h: 15:50 poco_nuvoloso Poco Nuvoloso 22 9 43 1015 10 O 24
Ieri h: 14:50 poco_nuvoloso Poco Nuvoloso 22 10 46 1015 10 O 14.8
Ieri h: 13:50 coperto Coperto 20 9 49 1016 10 SO 16.7